Time;durP1;ratioP1;P1;durP2;ratioP2;P2;SDS_P1;SDS_P2;PMS_P1;PMS_P2;Temp;Humidity;BMP_temperature;BMP_pressure;BME280_temperature;BME280_humidity;BME280_pressure;Samples;Min_cycle;Max_cycle;Signal;HPM_P1;HPM_P2
2023/10/24 00:02:02;;;;;;;;;;;11.70;99.90;;;11.07;100.00;96661.09;5041075;28;1637;-74
2023/10/24 00:04:29;;;;;;;;;;;11.70;99.90;;;11.03;100.00;96663.94;5045472;28;1611;-73
2023/10/24 00:06:56;;;;;;;;;;;11.80;99.90;;;11.06;100.00;96669.81;5042706;28;1903;-73
2023/10/24 00:09:23;;;;;;;;;;;11.70;99.90;;;11.02;100.00;96657.94;5042481;28;1511;-73
2023/10/24 00:11:50;;;;;;;;;;;11.80;99.90;;;11.03;100.00;96666.56;5024615;28;1849;-73
2023/10/24 00:14:17;;;;;;;;;;;11.80;99.90;;;11.04;100.00;96655.25;5026134;28;1593;-73
2023/10/24 00:16:44;;;;;;;;;;;11.80;99.90;;;11.05;100.00;96656.91;5023467;28;1906;-74
2023/10/24 00:19:11;;;;;;;;;;;11.80;99.90;;;11.07;100.00;96662.84;5039758;28;1617;-74
2023/10/24 00:21:38;;;;;;;;;;;11.80;99.90;;;11.10;100.00;96650.50;5040441;28;1896;-73
2023/10/24 00:24:05;;;;;;;;;;;11.80;99.90;;;11.17;100.00;96653.56;5041835;28;2218;-74
2023/10/24 00:26:32;;;;;;;;;;;11.80;99.90;;;11.13;100.00;96652.09;5044602;28;1515;-74
2023/10/24 00:28:59;;;;;;;;;;;11.80;99.90;;;11.16;100.00;96641.53;5042537;28;1579;-73
2023/10/24 00:31:26;;;;;;;;;;;11.80;99.90;;;11.13;100.00;96639.13;5041603;28;1661;-73
2023/10/24 00:33:53;;;;;;;;;;;11.80;99.90;;;11.20;100.00;96637.81;5041580;28;1554;-73
2023/10/24 00:36:20;;;;;;;;;;;11.80;99.90;;;11.25;100.00;96619.38;5041294;28;1979;-73
2023/10/24 00:38:47;;;;;;;;;;;11.90;99.90;;;11.17;100.00;96624.16;5038981;28;1570;-72
2023/10/24 00:41:13;;;;;;;;;;;11.90;99.90;;;11.29;100.00;96629.47;5024413;28;1900;-73
2023/10/24 00:43:40;;;;;;;;;;;11.90;99.90;;;11.31;100.00;96621.56;5044811;28;1903;-73
2023/10/24 00:46:08;;;;;;;;;;;12.00;99.90;;;11.26;100.00;96614.06;5042237;28;1660;-74
2023/10/24 00:48:38;;;;;;;;;;;12.00;99.90;;;11.30;100.00;96609.53;5030993;28;1626;-74
2023/10/24 00:51:05;;;;;;;;;;;11.90;99.90;;;11.34;100.00;96603.22;5010284;28;1427;-74
2023/10/24 00:53:32;;;;;;;;;;;12.10;99.90;;;11.41;100.00;96603.69;5027301;28;1402;-73
2023/10/24 00:56:01;;;;;;;;;;;12.00;99.90;;;11.38;100.00;96603.84;5026297;28;1969;-73
2023/10/24 00:58:28;;;;;;;;;;;12.10;99.90;;;11.49;100.00;96607.47;5025513;28;1459;-74
2023/10/24 01:00:55;;;;;;;;;;;12.10;99.90;;;11.52;100.00;96602.09;5010533;28;1505;-73
2023/10/24 01:03:22;;;;;;;;;;;12.20;99.90;;;11.63;100.00;96605.75;5023918;28;1386;-73
2023/10/24 01:05:49;;;;;;;;;;;12.20;99.90;;;11.59;100.00;96605.13;5026316;28;1577;-74
2023/10/24 01:08:16;;;;;;;;;;;12.30;99.90;;;11.61;100.00;96608.47;5024682;28;1906;-74
2023/10/24 01:10:43;;;;;;;;;;;12.20;99.90;;;11.55;100.00;96611.44;5038559;28;1466;-74
2023/10/24 01:13:11;;;;;;;;;;;12.30;99.90;;;11.56;100.00;96607.06;5041584;28;1332;-73
2023/10/24 01:15:38;;;;;;;;;;;12.20;99.90;;;11.54;100.00;96596.78;5039347;28;1980;-71
2023/10/24 01:18:05;;;;;;;;;;;12.30;99.90;;;11.59;100.00;96605.13;5042494;28;1418;-74
2023/10/24 01:20:32;;;;;;;;;;;12.30;99.90;;;11.58;100.00;96589.63;5023384;28;1421;-74
2023/10/24 01:22:59;;;;;;;;;;;12.30;99.90;;;11.58;100.00;96593.06;5041530;28;1737;-74
2023/10/24 01:25:28;;;;;;;;;;;12.30;99.90;;;11.60;100.00;96583.41;5042660;28;1450;-74
2023/10/24 01:27:56;;;;;;;;;;;12.30;99.90;;;11.63;100.00;96582.38;5021013;28;1390;-73
2023/10/24 01:30:23;;;;;;;;;;;12.30;99.90;;;11.63;100.00;96578.03;5024086;28;1406;-73
2023/10/24 01:32:50;;;;;;;;;;;12.30;99.90;;;11.68;100.00;96575.13;5036347;28;1322;-73
2023/10/24 01:35:17;;;;;;;;;;;12.30;99.90;;;11.77;100.00;96577.16;5040880;28;1579;-74
2023/10/24 01:37:44;;;;;;;;;;;12.30;99.90;;;11.73;100.00;96568.72;5010344;28;1946;-73
2023/10/24 01:40:11;;;;;;;;;;;12.30;99.90;;;11.69;100.00;96579.41;5045919;28;1392;-73
2023/10/24 01:42:38;;;;;;;;;;;12.30;99.90;;;11.74;100.00;96574.72;5027084;28;1560;-73
2023/10/24 01:45:06;;;;;;;;;;;12.30;99.90;;;11.73;100.00;96567.88;5030314;28;1400;-74
2023/10/24 01:47:33;;;;;;;;;;;12.30;99.90;;;11.68;100.00;96547.38;5023728;28;1600;-73
2023/10/24 01:50:00;;;;;;;;;;;12.40;99.90;;;11.68;100.00;96536.16;5041670;28;1359;-73
2023/10/24 01:52:28;;;;;;;;;;;;;;;11.75;100.00;96555.63;5024315;28;1664;-74
2023/10/24 01:54:55;;;;;;;;;;;12.40;99.90;;;11.78;100.00;96546.78;5024116;28;1698;-73
2023/10/24 01:57:22;;;;;;;;;;;12.40;99.90;;;11.89;100.00;96550.41;5039934;28;1910;-73
2023/10/24 01:59:48;;;;;;;;;;;12.30;99.90;;;11.76;100.00;96562.47;5042462;28;1580;-73
2023/10/24 02:02:15;;;;;;;;;;;12.30;99.90;;;11.83;100.00;96570.72;5038858;28;1359;-73
2023/10/24 02:04:42;;;;;;;;;;;12.30;99.90;;;11.70;100.00;96575.88;5008367;28;1460;-73
2023/10/24 02:07:10;;;;;;;;;;;12.40;99.90;;;11.66;100.00;96574.41;5038400;28;1454;-73
2023/10/24 02:09:37;;;;;;;;;;;12.40;99.90;;;11.72;100.00;96580.03;5023135;28;1224;-74
2023/10/24 02:12:04;;;;;;;;;;;12.30;99.90;;;11.66;100.00;96584.78;5041995;28;1471;-74
2023/10/24 02:14:31;;;;;;;;;;;12.30;99.90;;;11.62;100.00;96597.13;5038939;28;1392;-74
2023/10/24 02:16:57;;;;;;;;;;;12.30;99.90;;;11.57;100.00;96598.38;5024236;28;1907;-74
2023/10/24 02:19:25;;;;;;;;;;;12.40;99.90;;;11.64;100.00;96604.84;5041282;28;1403;-74
2023/10/24 02:21:52;;;;;;;;;;;12.30;99.90;;;11.57;100.00;96599.19;5042270;28;1339;-73
2023/10/24 02:24:19;;;;;;;;;;;12.30;99.90;;;11.63;100.00;96603.16;5029225;28;1581;-73
2023/10/24 02:26:46;;;;;;;;;;;12.20;99.90;;;11.62;100.00;96612.72;5008174;28;1405;-73
2023/10/24 02:29:13;;;;;;;;;;;12.30;99.90;;;11.56;100.00;96615.69;5025227;28;1593;-74
2023/10/24 02:31:40;;;;;;;;;;;12.30;99.90;;;11.59;100.00;96599.94;5005533;28;1496;-73
2023/10/24 02:34:07;;;;;;;;;;;12.30;99.90;;;11.59;100.00;96606.91;5040575;28;1243;-72
2023/10/24 02:36:34;;;;;;;;;;;12.20;99.90;;;11.56;100.00;96612.28;5022295;28;2002;-74
2023/10/24 02:39:00;;;;;;;;;;;12.20;99.90;;;11.55;100.00;96608.84;5024043;28;1311;-74
2023/10/24 02:41:27;;;;;;;;;;;12.20;99.90;;;11.62;100.00;96604.09;5038010;28;1477;-74
2023/10/24 02:43:54;;;;;;;;;;;12.20;99.90;;;11.54;100.00;96598.53;5042264;28;1436;-74
2023/10/24 02:46:21;;;;;;;;;;;12.20;99.90;;;11.48;100.00;96595.41;5043682;28;1417;-74
2023/10/24 02:48:49;;;;;;;;;;;12.20;99.90;;;11.48;100.00;96595.41;5021117;28;1564;-73
2023/10/24 02:51:15;;;;;;;;;;;12.20;99.90;;;11.47;100.00;96595.47;5041913;28;1474;-74
2023/10/24 02:53:42;;;;;;;;;;;12.20;99.90;;;11.46;100.00;96596.44;5021961;28;1507;-73
2023/10/24 02:56:09;;;;;;;;;;;12.20;99.90;;;11.38;100.00;96601.25;5037954;28;2025;-72
2023/10/24 02:58:36;;;;;;;;;;;12.20;99.90;;;11.40;100.00;96582.03;5040184;28;1519;-74
2023/10/24 03:01:04;;;;;;;;;;;12.20;99.90;;;11.40;100.00;96591.59;5039517;28;1519;-73
2023/10/24 03:03:32;;;;;;;;;;;12.20;99.90;;;11.48;100.00;96605.78;5031877;28;1600;-73
2023/10/24 03:05:59;;;;;;;;;;;12.10;99.90;;;11.40;100.00;96609.78;5026544;28;1424;-73
2023/10/24 03:08:26;;;;;;;;;;;12.10;99.90;;;11.42;100.00;96620.94;5024284;28;2041;-73
2023/10/24 03:10:54;;;;;;;;;;;12.20;99.90;;;11.42;100.00;96611.34;5022788;28;1236;-73
2023/10/24 03:13:24;;;;;;;;;;;12.20;99.90;;;11.48;100.00;96611.00;5037577;28;1425;-72
2023/10/24 03:15:51;;;;;;;;;;;12.10;99.90;;;11.36;100.00;96614.34;5039811;28;1895;-73
2023/10/24 03:18:18;;;;;;;;;;;12.20;99.90;;;11.37;100.00;96610.81;5039713;28;1250;-73
2023/10/24 03:20:45;;;;;;;;;;;12.10;99.90;;;11.51;100.00;96607.38;5005201;28;1642;-73
2023/10/24 03:23:12;;;;;;;;;;;12.10;99.90;;;11.40;100.00;96613.22;5041891;28;1257;-71
2023/10/24 03:25:41;;;;;;;;;;;12.10;99.90;;;11.40;100.00;96604.59;5024791;28;1641;-73
2023/10/24 03:28:08;;;;;;;;;;;12.10;99.90;;;11.32;100.00;96597.28;5025270;28;1377;-73
2023/10/24 03:30:35;;;;;;;;;;;12.10;99.90;;;11.34;100.00;96611.00;5021103;28;1502;-74
2023/10/24 03:33:02;;;;;;;;;;;12.10;99.90;;;11.28;100.00;96612.19;5039274;28;1444;-73
2023/10/24 03:35:32;;;;;;;;;;;12.00;99.90;;;11.29;100.00;96603.50;5024245;28;1549;-73
2023/10/24 03:38:01;;;;;;;;;;;12.10;99.90;;;11.23;100.00;96598.66;5006279;28;1894;-73
2023/10/24 03:40:28;;;;;;;;;;;12.00;99.90;;;11.27;100.00;96601.94;5024798;28;1526;-74
2023/10/24 03:42:55;;;;;;;;;;;12.00;99.90;;;11.25;100.00;96609.81;5003578;28;1475;-73
2023/10/24 03:45:22;;;;;;;;;;;12.00;99.90;;;11.27;100.00;96605.34;5033991;28;1533;-73
2023/10/24 03:47:52;;;;;;;;;;;12.00;99.90;;;11.28;100.00;96603.56;5038765;28;1374;-73
2023/10/24 03:50:19;;;;;;;;;;;12.00;99.90;;;11.23;100.00;96593.47;5039134;28;1247;-73
2023/10/24 03:52:48;;;;;;;;;;;12.00;99.90;;;11.27;100.00;96607.13;5041108;28;1560;-72
2023/10/24 03:55:15;;;;;;;;;;;11.90;99.90;;;11.23;100.00;96603.88;5023870;28;1741;-73
2023/10/24 03:57:42;;;;;;;;;;;11.90;99.90;;;11.30;100.00;96602.56;5026473;28;1938;-73
2023/10/24 04:00:09;;;;;;;;;;;11.90;99.90;;;11.25;100.00;96603.78;5025972;28;1589;-74
2023/10/24 04:02:36;;;;;;;;;;;11.90;99.90;;;11.18;100.00;96594.69;5033332;28;1687;-73
2023/10/24 04:05:03;;;;;;;;;;;11.90;99.90;;;11.24;100.00;96599.50;5023951;28;1291;-73
2023/10/24 04:07:30;;;;;;;;;;;11.90;99.90;;;11.19;100.00;96599.78;5022882;28;1247;-73
2023/10/24 04:09:57;;;;;;;;;;;11.90;99.90;;;11.14;100.00;96607.03;5037210;28;1244;-73
2023/10/24 04:12:24;;;;;;;;;;;12.00;99.90;;;11.25;100.00;96602.00;5036793;28;1618;-73
2023/10/24 04:14:51;;;;;;;;;;;11.90;99.90;;;11.20;100.00;96603.19;5040089;28;1606;-72
2023/10/24 04:17:18;;;;;;;;;;;12.00;99.90;;;11.20;100.00;96596.25;5037505;28;1907;-73
2023/10/24 04:19:46;;;;;;;;;;;12.00;99.90;;;11.22;100.00;96603.94;5037943;28;1621;-73
2023/10/24 04:22:14;;;;;;;;;;;12.00;99.90;;;11.18;100.00;96599.88;5026420;28;1606;-73
2023/10/24 04:24:41;;;;;;;;;;;12.00;99.90;;;11.19;100.00;96593.75;5027760;28;1586;-73
2023/10/24 04:27:09;;;;;;;;;;;12.00;99.90;;;11.23;100.00;96596.06;5027687;28;1657;-73
2023/10/24 04:29:36;;;;;;;;;;;12.00;99.90;;;11.22;100.00;96599.59;5029854;28;1410;-74
2023/10/24 04:32:03;;;;;;;;;;;12.00;99.90;;;11.25;100.00;96595.97;5046068;28;1637;-73
2023/10/24 04:34:31;;;;;;;;;;;12.10;99.90;;;11.33;100.00;96595.50;5042827;28;1610;-73
2023/10/24 04:36:58;;;;;;;;;;;12.10;99.90;;;11.31;100.00;96585.19;5031134;28;1970;-73
2023/10/24 04:39:25;;;;;;;;;;;12.10;99.90;;;11.29;100.00;96587.09;5042124;28;1706;-74
2023/10/24 04:41:52;;;;;;;;;;;12.10;99.90;;;11.34;100.00;96577.25;5041125;28;1510;-73
2023/10/24 04:44:19;;;;;;;;;;;12.10;99.90;;;11.29;100.00;96568.91;5012613;28;1434;-73
2023/10/24 04:46:46;;;;;;;;;;;12.10;99.90;;;11.58;100.00;96568.84;5038839;28;1661;-74
2023/10/24 04:49:15;;;;;;;;;;;12.20;99.90;;;11.54;100.00;96568.22;5039341;28;1534;-72
2023/10/24 04:51:43;;;;;;;;;;;12.20;99.90;;;11.54;100.00;96569.94;5040742;28;1495;-74
2023/10/24 04:54:10;;;;;;;;;;;12.20;99.90;;;11.39;100.00;96567.38;5029764;28;1603;-73
2023/10/24 04:56:37;;;;;;;;;;;12.20;99.90;;;11.46;100.00;96560.88;5023932;28;1975;-73
2023/10/24 04:59:04;;;;;;;;;;;12.20;99.90;;;11.41;100.00;96572.50;5042264;28;1281;-73
2023/10/24 05:01:37;;;;;;;;;;;12.20;99.90;;;11.29;100.00;96567.13;5028293;28;1525;-73
2023/10/24 05:04:05;;;;;;;;;;;12.10;99.90;;;11.29;100.00;96563.69;5040645;28;1421;-73
2023/10/24 05:06:33;;;;;;;;;;;12.10;99.90;;;11.27;100.00;96552.56;5026088;28;1584;-73
2023/10/24 05:09:00;;;;;;;;;;;12.10;99.90;;;11.29;100.00;96551.53;5029859;28;1405;-74
2023/10/24 05:11:27;;;;;;;;;;;12.10;99.90;;;11.32;100.00;96547.09;5024753;28;1390;-74
2023/10/24 05:13:54;;;;;;;;;;;12.10;99.90;;;11.37;100.00;96539.84;5020168;28;1256;-73
2023/10/24 05:16:21;;;;;;;;;;;12.10;99.90;;;11.43;100.00;96539.47;5026734;28;1518;-74
2023/10/24 05:18:51;;;;;;;;;;;12.10;99.90;;;11.34;100.00;96530.47;5041664;28;1397;-73
2023/10/24 05:21:18;;;;;;;;;;;12.10;99.90;;;11.24;100.00;96534.56;5037689;28;1311;-73
2023/10/24 05:23:45;;;;;;;;;;;12.10;99.90;;;11.24;100.00;96545.81;5041002;28;1569;-73
2023/10/24 05:26:12;;;;;;;;;;;12.00;99.90;;;11.25;100.00;96555.25;5026456;28;1496;-73
2023/10/24 05:28:39;;;;;;;;;;;12.00;99.90;;;11.34;100.00;96550.44;5024006;28;1549;-71
2023/10/24 05:31:09;;;;;;;;;;;12.00;99.90;;;11.33;100.00;96551.34;5035426;28;1461;-72
2023/10/24 05:33:37;;;;;;;;;;;12.10;99.90;;;11.35;100.00;96559.88;5042022;28;1380;-73
2023/10/24 05:36:06;;;;;;;;;;;12.10;99.90;;;11.36;100.00;96566.72;5023233;28;1256;-73
2023/10/24 05:38:33;;;;;;;;;;;12.00;99.90;;;11.34;100.00;96571.22;5035242;28;1902;-73
2023/10/24 05:41:03;;;;;;;;;;;12.10;99.90;;;11.29;100.00;96582.72;5025402;28;1369;-72
2023/10/24 05:43:30;;;;;;;;;;;12.10;99.90;;;11.26;100.00;96584.66;5025287;28;1399;-74
2023/10/24 05:45:57;;;;;;;;;;;12.00;99.90;;;11.35;100.00;96575.47;5025824;28;1473;-74
2023/10/24 05:48:25;;;;;;;;;;;12.10;99.90;;;11.39;100.00;96576.94;5023908;28;1450;-72
2023/10/24 05:50:52;;;;;;;;;;;12.10;99.90;;;11.33;100.00;96565.16;5040401;28;1432;-74
2023/10/24 05:53:19;;;;;;;;;;;12.00;99.90;;;11.32;100.00;96560.06;5025294;28;1645;-74
2023/10/24 05:55:46;;;;;;;;;;;12.00;99.90;;;11.28;100.00;96583.63;5040270;28;1523;-73
2023/10/24 05:58:13;;;;;;;;;;;12.00;99.90;;;11.42;100.00;96574.16;5021267;28;1975;-73
2023/10/24 06:00:39;;;;;;;;;;;12.00;99.90;;;11.28;100.00;96588.81;5039581;28;1612;-73
2023/10/24 06:03:06;;;;;;;;;;;12.00;99.90;;;11.31;100.00;96577.41;5042583;28;1375;-73
2023/10/24 06:05:33;;;;;;;;;;;12.00;99.90;;;11.30;100.00;96571.38;5038883;28;1388;-74
2023/10/24 06:08:00;;;;;;;;;;;12.00;99.90;;;11.25;100.00;96583.00;5009867;28;1205;-73
2023/10/24 06:10:27;;;;;;;;;;;12.00;99.90;;;11.23;100.00;96567.50;5040853;28;1189;-73
2023/10/24 06:12:54;;;;;;;;;;;12.00;99.90;;;11.25;100.00;96567.41;5042214;28;1389;-73
2023/10/24 06:15:21;;;;;;;;;;;12.00;99.90;;;11.24;100.00;96566.59;5020765;28;993;-73
2023/10/24 06:17:48;;;;;;;;;;;12.00;99.90;;;11.26;100.00;96574.25;5024528;28;1909;-74
2023/10/24 06:20:15;;;;;;;;;;;12.00;99.90;;;11.23;100.00;96572.69;5038877;28;1413;-73
2023/10/24 06:22:42;;;;;;;;;;;12.00;99.90;;;11.21;100.00;96563.31;5023092;28;1359;-73
2023/10/24 06:25:10;;;;;;;;;;;12.00;99.90;;;11.22;100.00;96571.03;5038147;28;1572;-73
2023/10/24 06:27:37;;;;;;;;;;;12.00;99.90;;;11.22;100.00;96570.19;5024971;28;1449;-73
2023/10/24 06:30:05;;;;;;;;;;;12.00;99.90;;;11.28;100.00;96573.22;5040285;28;1398;-74
2023/10/24 06:32:32;;;;;;;;;;;12.00;99.90;;;11.30;100.00;96570.56;5027900;28;1446;-73
2023/10/24 06:34:59;;;;;;;;;;;12.00;99.90;;;11.37;100.00;96579.63;5039640;28;1336;-72
2023/10/24 06:37:29;;;;;;;;;;;12.00;99.90;;;11.43;100.00;96575.84;5039859;28;1902;-73
2023/10/24 06:39:56;;;;;;;;;;;12.00;99.90;;;11.44;100.00;96578.31;5023217;28;1234;-73
2023/10/24 06:42:24;;;;;;;;;;;12.10;99.90;;;11.36;100.00;96577.13;5036202;28;1378;-73
2023/10/24 06:44:51;;;;;;;;;;;12.00;99.90;;;11.34;100.00;96574.63;5040390;28;1309;-73
2023/10/24 06:47:18;;;;;;;;;;;12.00;99.90;;;11.33;100.00;96575.53;5022091;28;1135;-73
2023/10/24 06:49:45;;;;;;;;;;;12.00;99.90;;;11.24;100.00;96573.53;5042932;28;1460;-73
2023/10/24 06:52:12;;;;;;;;;;;12.00;99.90;;;11.32;100.00;96575.66;5023422;28;1424;-73
2023/10/24 06:54:39;;;;;;;;;;;12.00;99.90;;;11.27;100.00;96574.19;5040428;28;1368;-73
2023/10/24 06:57:06;;;;;;;;;;;12.00;99.90;;;11.38;100.00;96576.13;5041904;28;2010;-74
2023/10/24 06:59:33;;;;;;;;;;;12.10;99.90;;;11.27;100.00;96581.16;5036412;28;1677;-73
2023/10/24 07:02:00;;;;;;;;;;;12.10;99.90;;;11.21;100.00;96581.50;5018827;28;1411;-74
2023/10/24 07:04:27;;;;;;;;;;;12.00;99.90;;;11.27;100.00;96578.53;5043512;28;1476;-73
2023/10/24 07:06:54;;;;;;;;;;;12.10;99.90;;;11.34;100.00;96581.59;5020992;28;1173;-73
2023/10/24 07:09:21;;;;;;;;;;;12.00;99.90;;;11.42;100.00;96585.38;5038186;28;1220;-73
2023/10/24 07:11:47;;;;;;;;;;;12.10;99.90;;;11.44;100.00;96580.91;5025424;28;1385;-73
2023/10/24 07:14:14;;;;;;;;;;;12.10;99.90;;;11.36;100.00;96584.91;5040263;28;1787;-73
2023/10/24 07:16:41;;;;;;;;;;;12.10;99.90;;;11.35;100.00;96597.06;5039817;28;1410;-73
2023/10/24 07:19:09;;;;;;;;;;;12.10;99.90;;;11.41;100.00;96595.88;5023659;28;1977;-73
2023/10/24 07:21:36;;;;;;;;;;;12.10;99.90;;;11.50;100.00;96606.53;5007188;28;1356;-73
2023/10/24 07:24:03;;;;;;;;;;;12.20;99.90;;;11.45;100.00;96602.56;5037060;28;1096;-73
2023/10/24 07:26:30;;;;;;;;;;;12.20;99.90;;;11.54;100.00;96596.78;5036237;28;1432;-74
2023/10/24 07:28:57;;;;;;;;;;;12.20;99.90;;;11.38;100.00;96599.50;5021963;28;1610;-73
2023/10/24 07:31:25;;;;;;;;;;;12.20;99.90;;;11.54;100.00;96611.53;5041887;28;1396;-74
2023/10/24 07:33:52;;;;;;;;;;;12.20;99.90;;;11.46;100.00;96602.44;5020521;28;1617;-73
2023/10/24 07:36:19;;;;;;;;;;;12.20;99.90;;;11.39;100.00;96601.16;5037643;28;1303;-73
2023/10/24 07:38:46;;;;;;;;;;;12.20;99.90;;;11.37;100.00;96604.78;5036950;28;1929;-73
2023/10/24 07:41:13;;;;;;;;;;;12.20;99.90;;;11.41;100.00;96595.88;5040920;28;1547;-73
2023/10/24 07:43:44;;;;;;;;;;;12.20;99.90;;;11.63;100.00;96598.81;5020356;28;1776;-74
2023/10/24 07:46:11;;;;;;;;;;;12.20;99.90;;;11.66;100.00;96606.41;5039027;28;1545;-72
2023/10/24 07:48:38;;;;;;;;;;;12.20;99.90;;;11.56;100.00;96614.88;5023673;28;1391;-73
2023/10/24 07:51:05;;;;;;;;;;;12.20;99.90;;;11.52;100.00;96612.47;5025029;28;1503;-74
2023/10/24 07:53:33;;;;;;;;;;;12.20;99.90;;;11.48;100.00;96610.16;5037577;28;1818;-73
2023/10/24 07:56:03;;;;;;;;;;;12.20;99.90;;;11.54;100.00;96621.94;5023995;28;1155;-73
2023/10/24 07:58:33;;;;;;;;;;;12.30;99.90;;;11.59;100.00;96623.34;5032612;28;1906;-73
2023/10/24 08:01:00;;;;;;;;;;;12.20;99.90;;;11.57;100.00;96625.19;5042624;28;1225;-72
2023/10/24 08:03:27;;;;;;;;;;;12.30;99.90;;;11.49;100.00;96628.28;5033200;28;1385;-73
2023/10/24 08:05:54;;;;;;;;;;;12.30;99.90;;;11.53;100.00;96628.91;5045337;28;1492;-74
2023/10/24 08:08:21;;;;;;;;;;;12.30;99.90;;;11.50;100.00;96629.09;5043099;28;1436;-74
2023/10/24 08:10:48;;;;;;;;;;;12.30;99.90;;;11.50;100.00;96640.31;5041481;28;1455;-73
2023/10/24 08:13:15;;;;;;;;;;;12.30;99.90;;;11.45;100.00;96633.75;5043698;28;1523;-74
2023/10/24 08:15:42;;;;;;;;;;;12.30;99.90;;;11.49;100.00;96630.00;5024051;28;1067;-71
2023/10/24 08:18:10;;;;;;;;;;;12.30;99.90;;;11.54;100.00;96635.78;5023200;28;1984;-74
2023/10/24 08:20:36;;;;;;;;;;;12.30;99.90;;;11.57;100.00;96632.16;5045324;28;1415;-73
2023/10/24 08:23:03;;;;;;;;;;;12.30;99.90;;;11.64;100.00;96638.63;5042778;28;1343;-74
2023/10/24 08:25:31;;;;;;;;;;;12.30;99.90;;;11.57;100.00;96639.94;5040007;28;1036;-73
2023/10/24 08:27:58;;;;;;;;;;;12.30;99.90;;;11.58;100.00;96639.84;5037689;28;1175;-73
2023/10/24 08:30:25;;;;;;;;;;;12.30;99.90;;;11.57;100.00;96637.34;5045785;28;1482;-73
2023/10/24 08:32:52;;;;;;;;;;;12.30;99.90;;;11.61;100.00;96638.81;5027183;28;1409;-73
2023/10/24 08:35:19;;;;;;;;;;;12.20;99.90;;;11.62;100.00;96632.69;5007777;28;1402;-74
2023/10/24 08:37:47;;;;;;;;;;;12.30;99.90;;;11.64;100.00;96615.25;5021829;28;1899;-73
2023/10/24 08:40:14;;;;;;;;;;;12.30;99.90;;;11.64;100.00;96620.44;5039190;28;1166;-74
2023/10/24 08:42:42;;;;;;;;;;;12.40;99.90;;;11.66;100.00;96618.59;5042886;28;1436;-75
2023/10/24 08:45:10;;;;;;;;;;;12.30;99.90;;;11.68;100.00;96608.94;5025929;28;1384;-75
2023/10/24 08:47:37;;;;;;;;;;;12.40;99.90;;;11.75;100.00;96597.22;5029523;28;1123;-75
2023/10/24 08:50:05;;;;;;;;;;;12.40;99.90;;;11.77;100.00;96604.91;5026806;28;1501;-75
2023/10/24 08:52:32;;;;;;;;;;;12.50;99.90;;;11.85;100.00;96592.25;5025270;28;1405;-75
2023/10/24 08:55:00;;;;;;;;;;;12.50;99.90;;;11.84;100.00;96582.81;5037656;28;1079;-75
2023/10/24 08:57:30;;;;;;;;;;;12.50;99.90;;;11.94;100.00;96586.50;5024673;28;1898;-75
2023/10/24 08:59:58;;;;;;;;;;;12.50;99.90;;;11.93;100.00;96597.84;5044128;28;1592;-75
2023/10/24 09:02:28;;;;;;;;;;;12.50;99.90;;;11.99;100.00;96594.00;5024947;28;1358;-76
2023/10/24 09:04:55;;;;;;;;;;;12.60;99.90;;;11.91;100.00;96597.94;5025557;28;1398;-76
2023/10/24 09:07:22;;;;;;;;;;;12.60;99.90;;;11.86;100.00;96594.78;5009062;28;1567;-76
2023/10/24 09:09:49;;;;;;;;;;;12.60;99.90;;;11.95;100.00;96587.34;5040961;28;1666;-76
2023/10/24 09:12:17;;;;;;;;;;;12.60;99.90;;;11.97;100.00;96577.66;5024438;28;1433;-75
2023/10/24 09:14:45;;;;;;;;;;;12.60;99.90;;;12.02;100.00;96581.66;5021603;28;1499;-76
2023/10/24 09:17:22;;;;;;;;;;;12.70;99.90;;;11.96;100.00;96576.84;5025534;28;1548;-76
2023/10/24 09:19:50;;;;;;;;;;;12.50;99.90;;;11.93;100.00;96570.06;5032719;28;1981;-76
2023/10/24 09:22:18;;;;;;;;;;;12.60;99.90;;;11.93;100.00;96572.66;5022106;28;1590;-76
2023/10/24 09:24:49;;;;;;;;;;;12.60;99.90;;;11.95;100.00;96569.13;5041000;28;1450;-75
2023/10/24 09:27:17;;;;;;;;;;;12.50;99.90;;;11.92;100.00;96564.97;5023133;28;1643;-74
2023/10/24 09:29:48;;;;;;;;;;;12.60;99.90;;;11.98;100.00;96566.34;5042555;28;1397;-76
2023/10/24 09:32:16;;;;;;;;;;;12.60;99.90;;;12.10;100.00;96563.78;5040178;28;1478;-75
2023/10/24 09:34:46;;;;;;;;;;;12.70;99.90;;;11.98;100.00;96567.19;5026417;28;1234;-74
2023/10/24 09:37:13;;;;;;;;;;;12.70;99.90;;;12.07;100.00;96556.19;5024337;28;1380;-73
2023/10/24 09:39:55;;;;;;;;;;;12.70;99.90;;;12.04;100.00;96566.78;5041083;28;1980;-75
2023/10/24 09:42:26;;;;;;;;;;;12.70;99.90;;;12.00;100.00;96554.09;5020732;28;1642;-76
2023/10/24 09:45:02;;;;;;;;;;;12.70;99.90;;;12.12;100.00;96555.88;5038312;28;1214;-74
2023/10/24 09:47:31;;;;;;;;;;;12.70;99.90;;;12.10;100.00;96565.53;5043349;28;1076;-76
2023/10/24 09:49:59;;;;;;;;;;;12.60;99.90;;;12.06;100.00;96551.91;5024836;28;1257;-75
2023/10/24 09:52:28;;;;;;;;;;;12.60;99.90;;;12.05;100.00;96549.41;5021414;28;1681;-76
2023/10/24 09:54:57;;;;;;;;;;;12.60;99.90;;;11.99;100.00;96549.81;5028538;28;1362;-75
2023/10/24 09:57:26;;;;;;;;;;;12.60;99.90;;;12.07;100.00;96548.38;5040292;28;1126;-76
2023/10/24 09:59:56;;;;;;;;;;;12.60;99.90;;;12.13;100.00;96549.72;5022303;28;1973;-75
2023/10/24 10:02:24;;;;;;;;;;;12.60;99.90;;;12.10;100.00;96542.97;5045130;28;1392;-75
2023/10/24 10:04:51;;;;;;;;;;;12.60;99.90;;;12.17;100.00;96548.59;5026624;28;1431;-74
2023/10/24 10:07:20;;;;;;;;;;;12.60;99.90;;;12.10;100.00;96534.34;5022531;28;1430;-76
2023/10/24 10:09:51;;;;;;;;;;;12.70;99.90;;;12.16;100.00;96546.94;5039304;28;1345;-75
2023/10/24 10:12:19;;;;;;;;;;;12.70;99.90;;;12.08;100.00;96531.00;5024339;28;1422;-75
2023/10/24 10:15:09;;;;;;;;;;;12.60;99.90;;;12.13;100.00;96540.19;5021885;28;1107;-75
2023/10/24 10:17:51;;;;;;;;;;;12.70;99.90;;;12.29;100.00;96544.34;5046531;28;1073;-75
2023/10/24 10:20:36;;;;;;;;;;;12.60;99.90;;;12.31;100.00;96529.47;5041891;28;1384;-76
2023/10/24 10:23:06;;;;;;;;;;;12.80;99.90;;;12.35;100.00;96533.56;5038704;28;2015;-76
2023/10/24 10:26:03;;;;;;;;;;;12.80;99.90;;;12.39;100.00;96529.81;5044298;28;1495;-76
2023/10/24 10:28:52;;;;;;;;;;;12.90;99.90;;;12.30;100.00;96522.63;5040286;28;1855;-75
2023/10/24 10:31:38;;;;;;;;;;;12.90;99.90;;;12.46;100.00;96527.63;5040242;28;1414;-75
2023/10/24 10:34:35;;;;;;;;;;;13.00;99.90;;;12.61;100.00;96536.16;5045814;28;1461;-75
2023/10/24 10:37:04;;;;;;;;;;;13.00;99.90;;;12.55;100.00;96521.81;5040214;28;1108;-76
2023/10/24 10:39:31;;;;;;;;;;;13.00;99.90;;;12.51;100.00;96525.56;5022739;28;1906;-76
2023/10/24 10:41:58;;;;;;;;;;;13.00;99.90;;;12.53;100.00;96521.09;5041612;28;1441;-75
2023/10/24 10:44:42;;;;;;;;;;;13.00;99.90;;;12.61;100.00;96520.56;5023718;28;1187;-76
2023/10/24 10:47:14;;;;;;;;;;;13.10;99.90;;;12.76;100.00;96516.91;5025518;28;1118;-74
2023/10/24 10:49:46;;;;;;;;;;;13.30;99.90;;;12.85;100.00;96534.50;5031587;28;1517;-74
2023/10/24 10:52:31;;;;;;;;;;;13.30;99.90;;;12.97;100.00;96530.22;5007587;28;1442;-76
2023/10/24 10:55:18;;;;;;;;;;;13.30;99.90;;;12.67;100.00;96520.97;5022478;28;1393;-74
2023/10/24 10:58:02;;;;;;;;;;;13.30;99.90;;;12.78;100.00;96522.84;5022219;28;1215;-76
2023/10/24 11:00:41;;;;;;;;;;;13.30;99.90;;;12.76;100.00;96522.94;5037414;28;1936;-74
2023/10/24 11:03:37;;;;;;;;;;;13.20;99.90;;;12.81;100.00;96512.22;5021444;28;1351;-75
2023/10/24 11:06:14;;;;;;;;;;;13.20;99.90;;;12.69;100.00;96502.66;5026294;28;1301;-75
2023/10/24 11:08:48;;;;;;;;;;;13.20;99.90;;;12.53;100.00;96515.88;5010336;28;1378;-75
2023/10/24 11:11:19;;;;;;;;;;;13.20;99.90;;;12.49;100.00;96509.19;5038606;28;1825;-75
2023/10/24 11:13:48;;;;;;;;;;;13.10;99.90;;;12.36;100.00;96501.38;5023984;28;1064;-74
2023/10/24 11:16:15;;;;;;;;;;;13.00;99.90;;;12.36;100.00;96501.38;5024440;28;1375;-74
2023/10/24 11:19:05;;;;;;;;;;;13.00;99.90;;;12.39;100.00;96505.56;5038668;28;1902;-74
2023/10/24 11:21:32;;;;;;;;;;;12.90;99.90;;;12.26;100.00;96505.53;5035717;28;1555;-75
2023/10/24 11:24:00;;;;;;;;;;;12.90;99.90;;;12.24;100.00;96503.03;5010349;28;1400;-75